createdAt,value
2019-01-22T00:00:21.271Z,65.95
2019-01-22T00:02:49.767Z,80.20
2019-01-22T00:05:18.257Z,85.20
2019-01-22T00:07:46.699Z,83.75
2019-01-22T00:10:15.767Z,90.83
2019-01-22T00:12:44.192Z,83.72
2019-01-22T00:15:13.544Z,78.40
2019-01-22T00:17:42.439Z,85.50
2019-01-22T00:20:13.835Z,76.30
2019-01-22T00:22:42.330Z,84.03
2019-01-22T00:25:12.680Z,96.37
2019-01-22T00:27:41.160Z,77.90
2019-01-22T00:30:18.314Z,80.10
2019-01-22T00:32:46.737Z,77.35
2019-01-22T00:35:15.238Z,74.30
2019-01-22T00:37:43.720Z,74.22
2019-01-22T00:40:14.992Z,70.57
2019-01-22T00:42:43.892Z,80.00
2019-01-22T00:45:12.753Z,78.07
2019-01-22T00:47:41.184Z,69.42
2019-01-22T00:50:15.280Z,72.95
2019-01-22T00:52:43.716Z,73.40
2019-01-22T00:55:15.526Z,74.15
2019-01-22T00:57:44.259Z,74.80
2019-01-22T01:00:18.484Z,77.62
2019-01-22T01:02:46.966Z,79.62
2019-01-22T01:05:15.536Z,64.58
2019-01-22T01:07:44.504Z,63.08
2019-01-22T01:10:14.180Z,72.20
2019-01-22T01:12:42.664Z,62.50
2019-01-22T01:15:13.336Z,69.37
2019-01-22T01:17:44.034Z,67.62
2019-01-22T01:20:18.090Z,68.87
2019-01-22T01:22:46.523Z,61.88
2019-01-22T01:25:17.768Z,70.05
2019-01-22T01:27:46.253Z,72.15
2019-01-22T01:30:17.432Z,77.08
2019-01-22T01:32:45.846Z,68.60
2019-01-22T01:35:14.470Z,64.25
2019-01-22T01:37:45.981Z,69.12
2019-01-22T01:40:16.461Z,66.42
2019-01-22T01:42:44.881Z,73.55
2019-01-22T01:45:14.748Z,66.42
2019-01-22T01:47:43.680Z,67.00
2019-01-22T01:50:15.260Z,66.33
2019-01-22T01:52:43.686Z,74.35
2019-01-22T01:55:14.671Z,68.33
2019-01-22T01:57:43.085Z,70.52
2019-01-22T02:00:16.945Z,65.95
2019-01-22T02:02:45.431Z,72.50
2019-01-22T02:05:13.963Z,65.55
2019-01-22T02:07:42.528Z,66.37
2019-01-22T02:10:13.979Z,71.40
2019-01-22T02:12:48.230Z,67.82
2019-01-22T02:15:22.325Z,66.15
2019-01-22T02:18:11.472Z,62.38
2019-01-22T02:20:49.068Z,66.37
2019-01-22T02:23:43.141Z,66.60
2019-01-22T02:26:29.695Z,62.50
2019-01-22T02:29:06.805Z,68.10
2019-01-22T02:31:54.902Z,59.88
2019-01-22T02:34:26.802Z,63.75
2019-01-22T02:37:00.881Z,68.85
2019-01-22T02:39:47.410Z,58.15
2019-01-22T02:42:21.466Z,58.83
2019-01-22T02:45:10.293Z,56.05
2019-01-22T02:47:44.463Z,61.58
2019-01-22T02:50:25.020Z,64.67
2019-01-22T02:53:08.176Z,67.27
2019-01-22T02:55:51.544Z,59.85
2019-01-22T02:58:32.133Z,60.78
2019-01-22T03:01:15.532Z,56.83
2019-01-22T03:04:05.199Z,70.08
2019-01-22T03:06:42.331Z,62.00
2019-01-22T03:09:25.848Z,53.50
2019-01-22T03:11:57.817Z,54.90
2019-01-22T03:14:44.190Z,56.98
2019-01-22T03:17:21.528Z,57.33
2019-01-22T03:19:53.321Z,58.90
2019-01-22T03:22:39.744Z,55.65
2019-01-22T03:25:11.325Z,48.92
2019-01-22T03:27:58.005Z,53.68
2019-01-22T03:30:29.528Z,53.28
2019-01-22T03:33:12.964Z,58.98
2019-01-22T03:35:47.091Z,53.45
2019-01-22T03:38:24.708Z,54.10
2019-01-22T03:41:28.240Z,51.95
2019-01-22T03:44:14.886Z,53.30
2019-01-22T03:46:52.116Z,66.33
2019-01-22T03:49:26.695Z,56.95
2019-01-22T03:52:06.941Z,45.58
2019-01-22T03:54:44.299Z,50.00
2019-01-22T03:57:22.273Z,50.85
2019-01-22T03:59:51.741Z,52.60
2019-01-22T04:02:20.348Z,49.98
2019-01-22T04:04:48.766Z,43.42
2019-01-22T04:07:17.204Z,49.77
2019-01-22T04:09:46.358Z,53.52
2019-01-22T04:12:14.894Z,53.17
2019-01-22T04:14:43.430Z,54.88
2019-01-22T04:17:11.893Z,46.37
2019-01-22T04:19:40.304Z,50.50
2019-01-22T04:22:11.279Z,53.90
2019-01-22T04:24:51.661Z,52.33
2019-01-22T04:27:31.883Z,53.28
2019-01-22T04:30:15.610Z,51.08
2019-01-22T04:33:01.506Z,51.02
2019-01-22T04:35:32.999Z,49.08
2019-01-22T04:38:17.591Z,48.00
2019-01-22T04:40:51.815Z,53.15
2019-01-22T04:43:29.590Z,50.80
2019-01-22T04:46:13.648Z,46.18
2019-01-22T04:48:57.124Z,46.92
2019-01-22T04:51:34.519Z,54.60
2019-01-22T04:54:20.848Z,44.85
2019-01-22T04:57:09.124Z,45.43
2019-01-22T04:59:46.400Z,42.48
2019-01-22T05:02:37.341Z,49.63
2019-01-22T05:05:29.319Z,49.88
2019-01-22T05:08:18.865Z,53.60
2019-01-22T05:10:55.965Z,51.13
2019-01-22T05:13:30.157Z,50.55
2019-01-22T05:16:29.022Z,51.28
2019-01-22T05:19:03.495Z,50.10
2019-01-22T05:21:47.049Z,48.00
2019-01-22T05:24:30.198Z,46.58
2019-01-22T05:27:26.066Z,43.75
2019-01-22T05:29:57.572Z,51.08
2019-01-22T05:32:41.433Z,51.92
2019-01-22T05:35:12.944Z,51.25
2019-01-22T05:37:59.640Z,46.92
2019-01-22T05:40:54.949Z,43.87
2019-01-22T05:43:46.777Z,46.42
2019-01-22T05:46:23.979Z,41.53
2019-01-22T05:49:01.423Z,43.90
2019-01-22T05:51:38.864Z,47.38
2019-01-22T05:54:16.387Z,43.42
2019-01-22T05:56:50.951Z,50.05
2019-01-22T05:59:43.812Z,44.33
2019-01-22T06:02:14.488Z,42.80
2019-01-22T06:04:55.149Z,55.95
2019-01-22T06:07:29.601Z,59.45
2019-01-22T06:10:33.170Z,46.23
2019-01-22T06:13:13.681Z,55.73
2019-01-22T06:15:57.260Z,55.12
2019-01-22T06:18:37.424Z,61.65
2019-01-22T06:21:14.624Z,62.70
2019-01-22T06:24:19.513Z,74.07
2019-01-22T06:26:59.888Z,56.80
2019-01-22T06:29:49.472Z,70.75
2019-01-22T06:32:33.323Z,188.47
2019-01-22T06:35:04.818Z,136.30
2019-01-22T06:37:36.335Z,78.17
2019-01-22T06:40:10.605Z,49.27
2019-01-22T06:42:50.806Z,60.52
2019-01-22T06:45:40.466Z,50.48
2019-01-22T06:48:31.540Z,48.02
2019-01-22T06:51:03.028Z,47.85
2019-01-22T06:53:37.357Z,47.03
2019-01-22T06:56:26.376Z,49.20
2019-01-22T06:59:13.065Z,57.60
2019-01-22T07:01:50.281Z,47.70
2019-01-22T07:04:21.839Z,45.35
2019-01-22T07:07:18.572Z,43.28
2019-01-22T07:09:50.137Z,54.80
2019-01-22T07:12:27.221Z,48.33
2019-01-22T07:15:16.673Z,78.02
2019-01-22T07:18:12.696Z,46.20
2019-01-22T07:20:53.912Z,44.83
2019-01-22T07:23:43.365Z,51.70
2019-01-22T07:26:32.899Z,46.83
2019-01-22T07:29:18.831Z,44.50
2019-01-22T07:31:52.988Z,49.73
2019-01-22T07:34:36.491Z,45.98
2019-01-22T07:37:27.369Z,45.12
2019-01-22T07:40:32.264Z,41.33
2019-01-22T07:43:03.787Z,43.58
2019-01-22T07:46:06.813Z,46.80
2019-01-22T07:48:38.347Z,46.63
2019-01-22T07:51:18.617Z,41.40
2019-01-22T07:53:59.106Z,37.93
2019-01-22T07:56:39.293Z,46.73
2019-01-22T07:59:13.539Z,45.73
2019-01-22T08:02:07.633Z,46.08
2019-01-22T08:04:55.903Z,45.48
2019-01-22T08:07:50.266Z,43.92
2019-01-22T08:10:29.962Z,38.15
2019-01-22T08:13:10.446Z,49.10
2019-01-22T08:15:48.001Z,38.55
2019-01-22T08:18:36.226Z,40.73
2019-01-22T08:21:07.718Z,35.00
2019-01-22T08:23:54.543Z,43.33
2019-01-22T08:26:45.704Z,33.83
2019-01-22T08:29:38.472Z,40.17
2019-01-22T08:32:41.889Z,41.85
2019-01-22T08:35:16.084Z,35.25
2019-01-22T08:38:13.029Z,41.50
2019-01-22T08:41:02.591Z,41.80
2019-01-22T08:43:39.692Z,46.08
2019-01-22T08:46:17.025Z,39.78
2019-01-22T08:48:54.312Z,47.00
2019-01-22T08:51:46.241Z,45.63
2019-01-22T08:54:23.444Z,39.20
2019-01-22T08:57:15.928Z,47.08
2019-01-22T09:00:09.606Z,44.60
2019-01-22T09:02:57.380Z,47.03
2019-01-22T09:05:46.266Z,42.00
2019-01-22T09:08:26.597Z,54.13
2019-01-22T09:11:00.988Z,41.45
2019-01-22T09:13:35.101Z,44.42
2019-01-22T09:16:12.633Z,45.85
2019-01-22T09:18:56.005Z,43.80
2019-01-22T09:21:30.425Z,49.58
2019-01-22T09:24:10.694Z,52.30
2019-01-22T09:26:53.909Z,52.93
2019-01-22T09:29:40.485Z,48.53
2019-01-22T09:32:14.937Z,48.83
2019-01-22T09:34:58.517Z,46.50
2019-01-22T09:37:30.066Z,43.57
2019-01-22T09:39:58.499Z,40.10
2019-01-22T09:42:26.932Z,38.50
2019-01-22T09:44:55.378Z,39.30
2019-01-22T09:47:23.874Z,43.33
2019-01-22T09:49:52.314Z,48.93
2019-01-22T09:52:20.721Z,46.60
2019-01-22T09:54:49.151Z,42.07
2019-01-22T09:57:17.560Z,42.33
2019-01-22T09:59:45.968Z,34.43
2019-01-22T10:02:14.397Z,41.00
2019-01-22T10:04:42.823Z,45.70
2019-01-22T10:07:11.255Z,41.37
2019-01-22T10:09:39.665Z,33.90
2019-01-22T10:12:08.160Z,38.97
2019-01-22T10:14:36.575Z,34.20
2019-01-22T10:17:05.066Z,29.03
2019-01-22T10:19:33.479Z,32.00
2019-01-22T10:22:01.947Z,28.70
2019-01-22T10:24:30.367Z,33.63
2019-01-22T10:26:58.792Z,28.27
2019-01-22T10:29:27.232Z,30.60
2019-01-22T10:31:55.649Z,31.53
2019-01-22T10:34:24.070Z,26.10
2019-01-22T10:36:52.521Z,25.20
2019-01-22T10:39:20.931Z,28.47
2019-01-22T10:41:49.374Z,27.97
2019-01-22T10:44:17.799Z,31.80
2019-01-22T10:46:46.229Z,34.33
2019-01-22T10:49:14.719Z,35.87
2019-01-22T10:51:43.161Z,31.43
2019-01-22T10:54:11.571Z,25.93
2019-01-22T10:56:40.087Z,27.97
2019-01-22T10:59:08.489Z,31.47
2019-01-22T11:01:36.912Z,32.03
2019-01-22T11:04:05.410Z,27.77
2019-01-22T11:06:33.928Z,29.90
2019-01-22T11:09:02.340Z,28.10
2019-01-22T11:11:30.780Z,32.03
2019-01-22T11:13:59.193Z,32.07
2019-01-22T11:16:27.608Z,26.80
2019-01-22T11:18:56.985Z,29.63
2019-01-22T11:21:25.410Z,29.90
2019-01-22T11:23:53.826Z,25.30
2019-01-22T11:26:22.317Z,25.53
2019-01-22T11:28:50.760Z,31.67
2019-01-22T11:31:19.179Z,24.67
2019-01-22T11:33:47.657Z,22.40
2019-01-22T11:36:16.086Z,29.67
2019-01-22T11:38:44.496Z,30.33
2019-01-22T11:41:13.007Z,28.73
2019-01-22T11:43:41.426Z,27.73
2019-01-22T11:46:09.858Z,24.40
2019-01-22T11:48:38.265Z,26.13
2019-01-22T11:51:06.695Z,32.10
2019-01-22T11:53:35.123Z,32.77
2019-01-22T11:56:03.549Z,24.63
2019-01-22T11:58:31.971Z,26.80
2019-01-22T12:01:00.778Z,25.27
2019-01-22T12:03:29.251Z,30.57
2019-01-22T12:05:57.692Z,27.63
2019-01-22T12:08:26.111Z,28.03
2019-01-22T12:10:54.529Z,25.93
2019-01-22T12:13:22.960Z,30.17
2019-01-22T12:15:51.368Z,32.03
2019-01-22T12:18:19.803Z,27.83
2019-01-22T12:20:48.208Z,31.67
2019-01-22T12:23:16.641Z,31.80
2019-01-22T12:25:45.149Z,33.87
2019-01-22T12:28:13.572Z,35.10
2019-01-22T12:30:41.979Z,32.47
2019-01-22T12:33:10.424Z,30.83
2019-01-22T12:35:38.839Z,31.20
2019-01-22T12:38:07.608Z,28.73
2019-01-22T12:40:36.031Z,30.70
2019-01-22T12:43:05.396Z,30.50
2019-01-22T12:45:36.523Z,34.60
2019-01-22T12:48:06.489Z,27.63
2019-01-22T12:50:35.081Z,33.73
2019-01-22T12:53:03.591Z,29.73
2019-01-22T12:55:31.997Z,31.00
2019-01-22T12:58:01.349Z,29.23
2019-01-22T13:00:32.300Z,35.00
2019-01-22T13:03:00.820Z,37.30
2019-01-22T13:05:47.053Z,33.47
2019-01-22T13:08:15.545Z,30.97
2019-01-22T13:10:43.956Z,30.97
2019-01-22T13:13:12.389Z,31.27
2019-01-22T13:15:40.815Z,32.33
2019-01-22T13:18:09.384Z,32.97
2019-01-22T13:20:45.587Z,30.27
2019-01-22T13:23:14.030Z,28.30
2019-01-22T13:25:42.448Z,29.63
2019-01-22T13:28:11.143Z,31.70
2019-01-22T13:30:39.552Z,35.93
2019-01-22T13:33:07.994Z,33.33
2019-01-22T13:35:36.450Z,29.00
2019-01-22T13:38:05.173Z,30.17
2019-01-22T13:40:33.581Z,33.47
2019-01-22T13:43:02.006Z,31.40
2019-01-22T13:45:35.690Z,34.13
2019-01-22T13:48:07.253Z,41.70
2019-01-22T13:50:35.678Z,42.57
2019-01-22T13:53:04.468Z,44.43
2019-01-22T13:55:38.075Z,32.87
2019-01-22T13:58:06.741Z,45.97
2019-01-22T14:00:35.689Z,49.53
2019-01-22T14:03:05.297Z,46.20
2019-01-22T14:05:33.787Z,33.93
2019-01-22T14:08:02.242Z,38.67
2019-01-22T14:10:30.644Z,46.53
2019-01-22T14:12:59.070Z,39.10
2019-01-22T14:15:35.756Z,37.27
2019-01-22T14:18:04.725Z,42.37
2019-01-22T14:20:33.200Z,44.03
2019-01-22T14:23:01.636Z,38.80
2019-01-22T14:25:30.040Z,34.30
2019-01-22T14:27:58.487Z,39.40
2019-01-22T14:30:35.649Z,35.97
2019-01-22T14:33:04.616Z,38.60
2019-01-22T14:35:33.044Z,39.47
2019-01-22T14:38:01.542Z,42.97
2019-01-22T14:40:32.308Z,39.47
2019-01-22T14:43:00.751Z,40.10
2019-01-22T14:45:29.167Z,38.60
2019-01-22T14:47:57.593Z,35.13
2019-01-22T14:50:28.449Z,37.30
2019-01-22T14:52:56.876Z,41.77
2019-01-22T14:55:25.286Z,38.47
2019-01-22T14:57:53.816Z,41.10
2019-01-22T15:00:27.180Z,40.20
2019-01-22T15:02:56.949Z,39.83
2019-01-22T15:05:27.740Z,38.37
2019-01-22T15:07:56.243Z,33.50
2019-01-22T15:10:24.725Z,38.57
2019-01-22T15:12:55.693Z,42.40
2019-01-22T15:15:24.240Z,42.93
2019-01-22T15:17:52.669Z,46.57
2019-01-22T15:20:22.935Z,38.17
2019-01-22T15:22:51.625Z,42.23
2019-01-22T15:25:20.323Z,43.97
2019-01-22T15:27:48.830Z,40.43
2019-01-22T15:30:19.805Z,44.97
2019-01-22T15:32:48.296Z,42.57
2019-01-22T15:35:16.735Z,45.87
2019-01-22T15:37:45.171Z,47.53
2019-01-22T15:40:21.895Z,45.03
2019-01-22T15:42:50.348Z,44.73
2019-01-22T15:45:18.939Z,40.00
2019-01-22T15:47:47.429Z,44.50
2019-01-22T15:50:18.487Z,48.20
2019-01-22T15:52:47.278Z,44.97
2019-01-22T15:55:18.584Z,44.20
2019-01-22T15:57:47.009Z,48.67
2019-01-22T16:00:17.930Z,44.13
2019-01-22T16:02:46.519Z,54.20
2019-01-22T16:05:15.066Z,45.57
2019-01-22T16:07:43.508Z,48.27
2019-01-22T16:10:12.971Z,44.83
2019-01-22T16:12:41.404Z,50.10
2019-01-22T16:15:12.934Z,53.10
2019-01-22T16:17:41.440Z,48.23
2019-01-22T16:20:18.564Z,49.40
2019-01-22T16:22:46.991Z,51.77
2019-01-22T16:25:15.853Z,46.10
2019-01-22T16:27:44.286Z,44.50
2019-01-22T16:30:15.402Z,49.40
2019-01-22T16:32:43.846Z,49.10
2019-01-22T16:35:14.796Z,54.03
2019-01-22T16:37:43.218Z,39.77
2019-01-22T16:40:16.040Z,53.30
2019-01-22T16:42:44.904Z,46.50
2019-01-22T16:45:19.429Z,45.80
2019-01-22T16:47:47.845Z,50.20
2019-01-22T16:50:16.430Z,47.47
2019-01-22T16:52:45.200Z,44.53
2019-01-22T16:55:16.964Z,48.43
2019-01-22T16:57:45.377Z,47.03
2019-01-22T17:00:17.110Z,49.67
2019-01-22T17:02:51.245Z,50.93
2019-01-22T17:05:20.122Z,52.50
2019-01-22T17:07:48.547Z,50.43
2019-01-22T17:10:18.925Z,50.87
2019-01-22T17:12:48.581Z,50.53
2019-01-22T17:15:17.544Z,49.17
2019-01-22T17:17:45.962Z,44.57
2019-01-22T17:20:17.507Z,51.90
2019-01-22T17:22:45.959Z,47.87
2019-01-22T17:25:14.598Z,48.03
2019-01-22T17:27:43.151Z,49.90
2019-01-22T17:30:14.823Z,49.83
2019-01-22T17:32:44.878Z,46.40
2019-01-22T17:35:13.636Z,44.67
2019-01-22T17:37:44.017Z,48.03
2019-01-22T17:40:16.385Z,40.43
2019-01-22T17:42:44.322Z,53.97
2019-01-22T17:45:12.888Z,45.03
2019-01-22T17:47:41.312Z,52.07
2019-01-22T17:50:15.193Z,53.23
2019-01-22T17:52:43.607Z,51.30
2019-01-22T17:55:12.975Z,52.20
2019-01-22T17:57:42.316Z,48.33
2019-01-22T18:00:15.497Z,54.03
2019-01-22T18:02:43.901Z,46.47
2019-01-22T18:05:14.473Z,48.57
2019-01-22T18:07:42.907Z,42.87
2019-01-22T18:10:16.323Z,48.13
2019-01-22T18:12:44.728Z,53.73
2019-01-22T18:15:14.889Z,48.23
2019-01-22T18:17:43.376Z,46.17
2019-01-22T18:20:26.656Z,57.97
2019-01-22T18:22:55.067Z,63.33
2019-01-22T18:25:23.565Z,54.77
2019-01-22T18:27:52.142Z,52.27
2019-01-22T18:30:22.819Z,55.70
2019-01-22T18:32:51.224Z,43.20
2019-01-22T18:35:28.698Z,55.83
2019-01-22T18:37:57.159Z,62.87
2019-01-22T18:40:25.640Z,65.33
2019-01-22T18:42:54.057Z,58.87
2019-01-22T18:45:22.568Z,52.93
2019-01-22T18:47:50.990Z,49.53
2019-01-22T18:50:40.305Z,50.53
2019-01-22T18:53:08.696Z,48.97
2019-01-22T18:55:37.120Z,41.07
2019-01-22T18:58:05.532Z,48.03
2019-01-22T19:00:34.054Z,53.63
2019-01-22T19:03:02.470Z,49.70
2019-01-22T19:05:30.910Z,48.73
2019-01-22T19:07:59.321Z,47.30
2019-01-22T19:10:28.732Z,51.50
2019-01-22T19:12:57.155Z,42.30
2019-01-22T19:15:25.593Z,44.53
2019-01-22T19:17:53.996Z,41.77
2019-01-22T19:20:22.420Z,53.90
2019-01-22T19:22:51.697Z,46.73
2019-01-22T19:25:26.039Z,52.97
2019-01-22T19:27:54.588Z,45.80
2019-01-22T19:30:27.696Z,49.87
2019-01-22T19:32:56.129Z,60.03
2019-01-22T19:35:24.557Z,45.83
2019-01-22T19:37:52.987Z,47.10
2019-01-22T19:40:21.588Z,44.67
2019-01-22T19:42:50.340Z,44.70
2019-01-22T19:45:21.418Z,45.57
2019-01-22T19:47:49.829Z,48.90
2019-01-22T19:50:18.337Z,50.83
2019-01-22T19:52:46.740Z,48.27
2019-01-22T19:55:15.246Z,41.30
2019-01-22T19:57:48.358Z,48.90
2019-01-22T20:00:36.504Z,48.80
2019-01-22T20:03:06.257Z,48.00
2019-01-22T20:05:35.004Z,46.40
2019-01-22T20:08:03.551Z,42.97
2019-01-22T20:10:32.006Z,52.47
2019-01-22T20:13:00.423Z,41.90
2019-01-22T20:15:28.845Z,46.83
2019-01-22T20:17:57.278Z,40.90
2019-01-22T20:20:25.699Z,50.03
2019-01-22T20:22:54.121Z,50.83
2019-01-22T20:25:22.623Z,48.60
2019-01-22T20:27:51.053Z,43.77
2019-01-22T20:30:25.168Z,43.57
2019-01-22T20:32:53.604Z,45.63
2019-01-22T20:35:22.153Z,42.33
2019-01-22T20:37:50.582Z,43.23
2019-01-22T20:40:19.033Z,49.53
2019-01-22T20:42:47.467Z,49.17
2019-01-22T20:45:18.698Z,39.10
2019-01-22T20:47:47.118Z,51.50
2019-01-22T20:50:19.411Z,44.80
2019-01-22T20:52:46.145Z,43.27
2019-01-22T20:55:17.286Z,46.73
2019-01-22T20:57:45.730Z,48.23
2019-01-22T21:00:16.481Z,42.93
2019-01-22T21:02:45.046Z,42.10
2019-01-22T21:05:22.019Z,52.53
2019-01-22T21:07:50.784Z,44.60
2019-01-22T21:10:24.320Z,45.70
2019-01-22T21:12:52.749Z,46.27
2019-01-22T21:15:21.249Z,41.50
2019-01-22T21:17:49.668Z,48.60
2019-01-22T21:20:18.735Z,41.97
2019-01-22T21:22:48.322Z,45.23
2019-01-22T21:25:21.376Z,45.37
2019-01-22T21:27:49.806Z,45.33
2019-01-22T21:30:45.353Z,41.13
2019-01-22T21:33:13.780Z,42.63
2019-01-22T21:35:42.196Z,44.30
2019-01-22T21:38:10.709Z,48.47
2019-01-22T21:40:39.120Z,45.33
2019-01-22T21:43:07.553Z,49.03
2019-01-22T21:45:35.970Z,41.90
2019-01-22T21:48:04.833Z,46.43
2019-01-22T21:50:33.248Z,46.17
2019-01-22T21:53:01.688Z,41.90
2019-01-22T21:55:30.115Z,47.83
2019-01-22T21:57:58.550Z,43.73
2019-01-22T22:00:27.736Z,48.83
2019-01-22T22:02:56.299Z,48.97
2019-01-22T22:05:30.333Z,47.07
2019-01-22T22:07:59.071Z,53.77
2019-01-22T22:10:27.546Z,51.07
2019-01-22T22:12:55.977Z,50.23
2019-01-22T22:15:26.025Z,55.83
2019-01-22T22:17:54.523Z,53.83
2019-01-22T22:20:23.801Z,49.27
2019-01-22T22:22:52.257Z,47.23
2019-01-22T22:25:23.770Z,48.90
2019-01-22T22:27:52.191Z,44.00
2019-01-22T22:30:23.421Z,48.40
2019-01-22T22:32:51.853Z,47.60
2019-01-22T22:35:20.272Z,47.50
2019-01-22T22:37:48.711Z,51.13
2019-01-22T22:40:19.267Z,45.10
2019-01-22T22:42:47.693Z,54.07
2019-01-22T22:45:21.566Z,51.63
2019-01-22T22:47:50.068Z,56.70
2019-01-22T22:50:26.563Z,54.33
2019-01-22T22:52:54.976Z,55.97
2019-01-22T22:55:23.410Z,64.27
2019-01-22T22:57:52.797Z,57.77
2019-01-22T23:00:39.782Z,56.30
2019-01-22T23:03:08.366Z,45.83
2019-01-22T23:05:37.738Z,53.20
2019-01-22T23:08:06.243Z,50.67
2019-01-22T23:10:34.786Z,48.33
2019-01-22T23:13:03.400Z,56.13
2019-01-22T23:15:32.093Z,54.30
2019-01-22T23:18:00.607Z,56.83
2019-01-22T23:20:29.012Z,53.40
2019-01-22T23:22:57.437Z,54.10
2019-01-22T23:25:25.849Z,58.23
2019-01-22T23:27:54.286Z,55.97
2019-01-22T23:30:22.783Z,56.40
2019-01-22T23:32:51.289Z,53.17
2019-01-22T23:35:20.150Z,50.97
2019-01-22T23:37:48.591Z,59.03
2019-01-22T23:40:18.039Z,58.77
2019-01-22T23:42:46.479Z,51.77
2019-01-22T23:45:15.249Z,57.33
2019-01-22T23:47:43.684Z,52.20
2019-01-22T23:50:16.250Z,47.30
2019-01-22T23:52:46.625Z,42.07
2019-01-22T23:55:15.105Z,51.97
2019-01-22T23:57:43.853Z,67.97
